sensor_id;sensor_type;location;lat;lon;timestamp;P1;durP1;ratioP1;P2;durP2;ratioP2
27269;SDS011;14769;56.934;24.176;2023-03-12T00:00:37;3.63;;;2.20;;
27269;SDS011;14769;56.934;24.176;2023-03-12T00:01:40;2.63;;;1.50;;
27269;SDS011;14769;56.934;24.176;2023-03-12T00:02:42;3.80;;;2.20;;
27269;SDS011;14769;56.934;24.176;2023-03-12T00:03:44;3.00;;;2.47;;
27269;SDS011;14769;56.934;24.176;2023-03-12T00:04:46;8.02;;;3.80;;
27269;SDS011;14769;56.934;24.176;2023-03-12T00:05:48;6.38;;;3.70;;
27269;SDS011;14769;56.934;24.176;2023-03-12T00:06:50;3.75;;;2.50;;
27269;SDS011;14769;56.934;24.176;2023-03-12T00:07:52;4.22;;;2.25;;
27269;SDS011;14769;56.934;24.176;2023-03-12T00:08:54;3.28;;;1.60;;
27269;SDS011;14769;56.934;24.176;2023-03-12T00:09:56;2.55;;;1.48;;
27269;SDS011;14769;56.934;24.176;2023-03-12T00:10:58;3.03;;;1.30;;
27269;SDS011;14769;56.934;24.176;2023-03-12T00:12:01;4.10;;;1.20;;
27269;SDS011;14769;56.934;24.176;2023-03-12T00:13:03;3.50;;;1.77;;
27269;SDS011;14769;56.934;24.176;2023-03-12T00:14:05;4.03;;;1.83;;
27269;SDS011;14769;56.934;24.176;2023-03-12T00:15:07;3.53;;;1.23;;
27269;SDS011;14769;56.934;24.176;2023-03-12T00:16:11;3.25;;;1.30;;
27269;SDS011;14769;56.934;24.176;2023-03-12T00:17:15;3.88;;;1.17;;
27269;SDS011;14769;56.934;24.176;2023-03-12T00:18:17;1.77;;;1.02;;
27269;SDS011;14769;56.934;24.176;2023-03-12T00:19:19;1.73;;;1.10;;
27269;SDS011;14769;56.934;24.176;2023-03-12T00:20:21;3.13;;;1.10;;
27269;SDS011;14769;56.934;24.176;2023-03-12T00:21:23;3.42;;;0.88;;
27269;SDS011;14769;56.934;24.176;2023-03-12T00:22:26;1.80;;;1.17;;
27269;SDS011;14769;56.934;24.176;2023-03-12T00:23:28;4.13;;;1.35;;
27269;SDS011;14769;56.934;24.176;2023-03-12T00:24:30;4.65;;;1.30;;
27269;SDS011;14769;56.934;24.176;2023-03-12T00:25:32;2.03;;;1.50;;
27269;SDS011;14769;56.934;24.176;2023-03-12T00:26:34;2.28;;;1.30;;
27269;SDS011;14769;56.934;24.176;2023-03-12T00:27:36;2.40;;;1.10;;
27269;SDS011;14769;56.934;24.176;2023-03-12T00:28:38;3.25;;;1.35;;
27269;SDS011;14769;56.934;24.176;2023-03-12T00:29:40;3.60;;;1.35;;
27269;SDS011;14769;56.934;24.176;2023-03-12T00:30:42;4.43;;;1.50;;
27269;SDS011;14769;56.934;24.176;2023-03-12T00:31:44;2.88;;;1.48;;
27269;SDS011;14769;56.934;24.176;2023-03-12T00:32:46;2.35;;;1.48;;
27269;SDS011;14769;56.934;24.176;2023-03-12T00:33:48;4.38;;;1.30;;
27269;SDS011;14769;56.934;24.176;2023-03-12T00:34:51;3.45;;;1.42;;
27269;SDS011;14769;56.934;24.176;2023-03-12T00:35:54;4.70;;;1.70;;
27269;SDS011;14769;56.934;24.176;2023-03-12T00:37:00;10.50;;;1.65;;
27269;SDS011;14769;56.934;24.176;2023-03-12T00:38:02;5.93;;;1.70;;
27269;SDS011;14769;56.934;24.176;2023-03-12T00:39:03;2.97;;;1.33;;
27269;SDS011;14769;56.934;24.176;2023-03-12T00:40:06;3.45;;;1.40;;
27269;SDS011;14769;56.934;24.176;2023-03-12T00:41:10;4.15;;;1.42;;
27269;SDS011;14769;56.934;24.176;2023-03-12T00:42:11;3.78;;;1.83;;
27269;SDS011;14769;56.934;24.176;2023-03-12T00:43:14;2.50;;;1.40;;
27269;SDS011;14769;56.934;24.176;2023-03-12T00:44:16;4.15;;;1.80;;
27269;SDS011;14769;56.934;24.176;2023-03-12T00:45:18;5.70;;;2.00;;
27269;SDS011;14769;56.934;24.176;2023-03-12T00:46:19;2.58;;;1.70;;
27269;SDS011;14769;56.934;24.176;2023-03-12T00:47:22;4.68;;;1.80;;
27269;SDS011;14769;56.934;24.176;2023-03-12T00:48:24;4.53;;;1.67;;
27269;SDS011;14769;56.934;24.176;2023-03-12T00:49:26;2.45;;;1.23;;
27269;SDS011;14769;56.934;24.176;2023-03-12T00:50:28;3.13;;;1.40;;
27269;SDS011;14769;56.934;24.176;2023-03-12T00:51:30;3.80;;;1.50;;
27269;SDS011;14769;56.934;24.176;2023-03-12T00:52:32;3.08;;;1.63;;
27269;SDS011;14769;56.934;24.176;2023-03-12T00:53:34;4.20;;;1.83;;
27269;SDS011;14769;56.934;24.176;2023-03-12T00:54:36;4.00;;;1.63;;
27269;SDS011;14769;56.934;24.176;2023-03-12T00:55:38;5.57;;;1.80;;
27269;SDS011;14769;56.934;24.176;2023-03-12T00:56:40;3.05;;;1.70;;
27269;SDS011;14769;56.934;24.176;2023-03-12T00:57:42;3.53;;;1.70;;
27269;SDS011;14769;56.934;24.176;2023-03-12T00:58:44;4.43;;;1.80;;
27269;SDS011;14769;56.934;24.176;2023-03-12T00:59:46;2.67;;;1.50;;
27269;SDS011;14769;56.934;24.176;2023-03-12T01:00:48;4.93;;;1.70;;
27269;SDS011;14769;56.934;24.176;2023-03-12T01:01:50;6.68;;;1.73;;
27269;SDS011;14769;56.934;24.176;2023-03-12T01:02:52;4.45;;;1.65;;
27269;SDS011;14769;56.934;24.176;2023-03-12T01:03:54;5.57;;;1.95;;
27269;SDS011;14769;56.934;24.176;2023-03-12T01:04:57;4.38;;;2.00;;
27269;SDS011;14769;56.934;24.176;2023-03-12T01:05:59;5.68;;;2.00;;
27269;SDS011;14769;56.934;24.176;2023-03-12T01:07:01;4.30;;;1.58;;
27269;SDS011;14769;56.934;24.176;2023-03-12T01:08:03;4.63;;;1.80;;
27269;SDS011;14769;56.934;24.176;2023-03-12T01:09:06;5.13;;;1.65;;
27269;SDS011;14769;56.934;24.176;2023-03-12T01:10:08;5.85;;;1.63;;
27269;SDS011;14769;56.934;24.176;2023-03-12T01:11:13;5.05;;;1.90;;
27269;SDS011;14769;56.934;24.176;2023-03-12T01:12:16;4.35;;;1.90;;
27269;SDS011;14769;56.934;24.176;2023-03-12T01:13:18;6.43;;;1.92;;
27269;SDS011;14769;56.934;24.176;2023-03-12T01:14:20;4.38;;;1.65;;
27269;SDS011;14769;56.934;24.176;2023-03-12T01:15:22;4.63;;;1.95;;
27269;SDS011;14769;56.934;24.176;2023-03-12T01:16:25;4.70;;;1.55;;
27269;SDS011;14769;56.934;24.176;2023-03-12T01:17:30;3.40;;;1.63;;
27269;SDS011;14769;56.934;24.176;2023-03-12T01:18:32;5.18;;;1.85;;
27269;SDS011;14769;56.934;24.176;2023-03-12T01:19:34;5.50;;;1.58;;
27269;SDS011;14769;56.934;24.176;2023-03-12T01:20:36;3.65;;;1.52;;
27269;SDS011;14769;56.934;24.176;2023-03-12T01:21:38;3.05;;;1.70;;
27269;SDS011;14769;56.934;24.176;2023-03-12T01:22:40;3.80;;;1.75;;
27269;SDS011;14769;56.934;24.176;2023-03-12T01:23:42;3.03;;;1.23;;
27269;SDS011;14769;56.934;24.176;2023-03-12T01:24:44;5.05;;;1.00;;
27269;SDS011;14769;56.934;24.176;2023-03-12T01:25:46;7.38;;;1.67;;
27269;SDS011;14769;56.934;24.176;2023-03-12T01:26:49;3.28;;;1.50;;
27269;SDS011;14769;56.934;24.176;2023-03-12T01:27:51;4.57;;;1.48;;
27269;SDS011;14769;56.934;24.176;2023-03-12T01:28:53;4.78;;;1.60;;
27269;SDS011;14769;56.934;24.176;2023-03-12T01:29:55;6.80;;;1.80;;
27269;SDS011;14769;56.934;24.176;2023-03-12T01:30:57;4.93;;;1.40;;
27269;SDS011;14769;56.934;24.176;2023-03-12T01:31:59;3.38;;;1.60;;
27269;SDS011;14769;56.934;24.176;2023-03-12T01:33:01;4.03;;;1.70;;
27269;SDS011;14769;56.934;24.176;2023-03-12T01:34:03;4.88;;;1.67;;
27269;SDS011;14769;56.934;24.176;2023-03-12T01:35:05;4.13;;;1.38;;
27269;SDS011;14769;56.934;24.176;2023-03-12T01:36:18;3.58;;;1.38;;
27269;SDS011;14769;56.934;24.176;2023-03-12T01:37:22;2.97;;;1.60;;
27269;SDS011;14769;56.934;24.176;2023-03-12T01:38:24;6.35;;;2.53;;
27269;SDS011;14769;56.934;24.176;2023-03-12T01:39:26;3.17;;;1.50;;
27269;SDS011;14769;56.934;24.176;2023-03-12T01:40:28;4.65;;;1.85;;
27269;SDS011;14769;56.934;24.176;2023-03-12T01:41:34;5.53;;;2.03;;
27269;SDS011;14769;56.934;24.176;2023-03-12T01:42:37;4.35;;;1.90;;
27269;SDS011;14769;56.934;24.176;2023-03-12T01:43:39;5.75;;;1.75;;
27269;SDS011;14769;56.934;24.176;2023-03-12T01:44:54;3.67;;;1.73;;
27269;SDS011;14769;56.934;24.176;2023-03-12T01:47:24;3.75;;;1.60;;
27269;SDS011;14769;56.934;24.176;2023-03-12T01:48:29;2.80;;;1.67;;
27269;SDS011;14769;56.934;24.176;2023-03-12T01:49:43;4.43;;;1.10;;
27269;SDS011;14769;56.934;24.176;2023-03-12T01:50:45;2.53;;;1.17;;
27269;SDS011;14769;56.934;24.176;2023-03-12T01:51:55;4.05;;;1.42;;
27269;SDS011;14769;56.934;24.176;2023-03-12T01:52:57;5.03;;;1.40;;
27269;SDS011;14769;56.934;24.176;2023-03-12T01:54:01;3.45;;;1.10;;
27269;SDS011;14769;56.934;24.176;2023-03-12T01:56:12;2.15;;;1.15;;
27269;SDS011;14769;56.934;24.176;2023-03-12T01:57:17;3.03;;;1.38;;
27269;SDS011;14769;56.934;24.176;2023-03-12T01:58:30;2.65;;;1.08;;
27269;SDS011;14769;56.934;24.176;2023-03-12T01:59:36;2.65;;;0.85;;
27269;SDS011;14769;56.934;24.176;2023-03-12T02:00:42;4.07;;;1.20;;
27269;SDS011;14769;56.934;24.176;2023-03-12T02:01:45;2.10;;;1.08;;
27269;SDS011;14769;56.934;24.176;2023-03-12T02:02:48;3.85;;;1.02;;
27269;SDS011;14769;56.934;24.176;2023-03-12T02:03:53;4.70;;;1.35;;
27269;SDS011;14769;56.934;24.176;2023-03-12T02:05:07;3.67;;;1.05;;
27269;SDS011;14769;56.934;24.176;2023-03-12T02:06:18;5.47;;;1.92;;
27269;SDS011;14769;56.934;24.176;2023-03-12T02:07:23;3.25;;;1.17;;
27269;SDS011;14769;56.934;24.176;2023-03-12T02:08:25;3.85;;;1.58;;
27269;SDS011;14769;56.934;24.176;2023-03-12T02:09:27;4.18;;;1.27;;
27269;SDS011;14769;56.934;24.176;2023-03-12T02:10:32;6.18;;;1.60;;
27269;SDS011;14769;56.934;24.176;2023-03-12T02:11:34;5.70;;;1.25;;
27269;SDS011;14769;56.934;24.176;2023-03-12T02:12:36;5.13;;;1.58;;
27269;SDS011;14769;56.934;24.176;2023-03-12T02:13:38;5.00;;;1.58;;
27269;SDS011;14769;56.934;24.176;2023-03-12T02:14:40;3.05;;;1.33;;
27269;SDS011;14769;56.934;24.176;2023-03-12T02:15:43;3.57;;;1.30;;
27269;SDS011;14769;56.934;24.176;2023-03-12T02:16:45;2.65;;;1.52;;
27269;SDS011;14769;56.934;24.176;2023-03-12T02:17:47;3.95;;;1.08;;
27269;SDS011;14769;56.934;24.176;2023-03-12T02:18:49;2.75;;;1.10;;
27269;SDS011;14769;56.934;24.176;2023-03-12T02:20:00;5.78;;;1.50;;
27269;SDS011;14769;56.934;24.176;2023-03-12T02:21:27;4.70;;;1.30;;
27269;SDS011;14769;56.934;24.176;2023-03-12T02:22:34;4.90;;;1.25;;
27269;SDS011;14769;56.934;24.176;2023-03-12T02:23:40;2.78;;;1.35;;
27269;SDS011;14769;56.934;24.176;2023-03-12T02:26:24;3.45;;;1.30;;
27269;SDS011;14769;56.934;24.176;2023-03-12T02:27:30;2.75;;;1.02;;
27269;SDS011;14769;56.934;24.176;2023-03-12T02:28:34;2.20;;;1.05;;
27269;SDS011;14769;56.934;24.176;2023-03-12T02:29:43;4.22;;;1.65;;
27269;SDS011;14769;56.934;24.176;2023-03-12T02:30:47;3.92;;;1.13;;
27269;SDS011;14769;56.934;24.176;2023-03-12T02:33:04;4.22;;;2.17;;
27269;SDS011;14769;56.934;24.176;2023-03-12T02:34:07;4.22;;;1.42;;
27269;SDS011;14769;56.934;24.176;2023-03-12T02:35:10;2.92;;;0.85;;
27269;SDS011;14769;56.934;24.176;2023-03-12T02:36:13;7.30;;;1.17;;
27269;SDS011;14769;56.934;24.176;2023-03-12T02:37:16;3.35;;;1.50;;
27269;SDS011;14769;56.934;24.176;2023-03-12T02:39:42;2.47;;;1.30;;
27269;SDS011;14769;56.934;24.176;2023-03-12T02:40:50;4.80;;;1.58;;
27269;SDS011;14769;56.934;24.176;2023-03-12T02:41:53;2.47;;;1.40;;
27269;SDS011;14769;56.934;24.176;2023-03-12T02:42:58;3.15;;;1.20;;
27269;SDS011;14769;56.934;24.176;2023-03-12T02:45:05;3.17;;;1.40;;
27269;SDS011;14769;56.934;24.176;2023-03-12T02:46:09;4.88;;;1.40;;
27269;SDS011;14769;56.934;24.176;2023-03-12T02:47:11;3.38;;;1.20;;
27269;SDS011;14769;56.934;24.176;2023-03-12T02:48:13;1.58;;;1.25;;
27269;SDS011;14769;56.934;24.176;2023-03-12T02:49:16;2.75;;;1.40;;
27269;SDS011;14769;56.934;24.176;2023-03-12T02:50:19;3.40;;;1.35;;
27269;SDS011;14769;56.934;24.176;2023-03-12T02:51:22;3.95;;;1.55;;
27269;SDS011;14769;56.934;24.176;2023-03-12T02:52:23;3.75;;;1.52;;
27269;SDS011;14769;56.934;24.176;2023-03-12T02:53:25;5.80;;;1.40;;
27269;SDS011;14769;56.934;24.176;2023-03-12T02:54:27;3.05;;;1.30;;
27269;SDS011;14769;56.934;24.176;2023-03-12T02:55:30;3.10;;;1.50;;
27269;SDS011;14769;56.934;24.176;2023-03-12T02:56:32;1.85;;;1.20;;
27269;SDS011;14769;56.934;24.176;2023-03-12T02:57:34;4.10;;;1.40;;
27269;SDS011;14769;56.934;24.176;2023-03-12T02:58:38;4.50;;;1.85;;
27269;SDS011;14769;56.934;24.176;2023-03-12T02:59:43;1.80;;;1.23;;
27269;SDS011;14769;56.934;24.176;2023-03-12T03:00:45;3.95;;;1.60;;
27269;SDS011;14769;56.934;24.176;2023-03-12T03:02:52;5.55;;;1.75;;
27269;SDS011;14769;56.934;24.176;2023-03-12T03:03:54;4.72;;;1.50;;
27269;SDS011;14769;56.934;24.176;2023-03-12T03:04:56;3.15;;;1.40;;
27269;SDS011;14769;56.934;24.176;2023-03-12T03:05:58;3.50;;;1.30;;
27269;SDS011;14769;56.934;24.176;2023-03-12T03:10:06;2.45;;;1.23;;
27269;SDS011;14769;56.934;24.176;2023-03-12T03:11:09;5.32;;;1.70;;
27269;SDS011;14769;56.934;24.176;2023-03-12T03:12:11;4.00;;;1.50;;
27269;SDS011;14769;56.934;24.176;2023-03-12T03:13:13;4.65;;;1.52;;
27269;SDS011;14769;56.934;24.176;2023-03-12T03:14:15;3.85;;;1.55;;
27269;SDS011;14769;56.934;24.176;2023-03-12T03:15:18;6.20;;;1.67;;
27269;SDS011;14769;56.934;24.176;2023-03-12T03:16:20;2.55;;;1.70;;
27269;SDS011;14769;56.934;24.176;2023-03-12T03:17:22;3.45;;;1.90;;
27269;SDS011;14769;56.934;24.176;2023-03-12T03:18:25;5.22;;;1.85;;
27269;SDS011;14769;56.934;24.176;2023-03-12T03:21:32;5.40;;;2.00;;
27269;SDS011;14769;56.934;24.176;2023-03-12T03:22:35;3.00;;;1.60;;
27269;SDS011;14769;56.934;24.176;2023-03-12T03:24:40;2.60;;;1.60;;
27269;SDS011;14769;56.934;24.176;2023-03-12T03:25:42;1.93;;;1.53;;
27269;SDS011;14769;56.934;24.176;2023-03-12T03:26:44;1.95;;;1.38;;
27269;SDS011;14769;56.934;24.176;2023-03-12T03:27:46;3.33;;;1.42;;
27269;SDS011;14769;56.934;24.176;2023-03-12T03:28:48;3.70;;;1.50;;
27269;SDS011;14769;56.934;24.176;2023-03-12T03:29:50;3.35;;;1.40;;
27269;SDS011;14769;56.934;24.176;2023-03-12T03:30:55;3.80;;;1.27;;
27269;SDS011;14769;56.934;24.176;2023-03-12T03:32:01;3.80;;;1.40;;
27269;SDS011;14769;56.934;24.176;2023-03-12T03:33:03;4.30;;;1.48;;
27269;SDS011;14769;56.934;24.176;2023-03-12T03:34:05;3.70;;;1.50;;
27269;SDS011;14769;56.934;24.176;2023-03-12T03:35:07;2.17;;;1.10;;
27269;SDS011;14769;56.934;24.176;2023-03-12T03:36:10;4.28;;;1.40;;
27269;SDS011;14769;56.934;24.176;2023-03-12T03:37:15;4.30;;;1.42;;
27269;SDS011;14769;56.934;24.176;2023-03-12T03:38:17;5.97;;;1.67;;
27269;SDS011;14769;56.934;24.176;2023-03-12T03:39:19;3.28;;;1.38;;
27269;SDS011;14769;56.934;24.176;2023-03-12T03:41:22;2.97;;;1.35;;
27269;SDS011;14769;56.934;24.176;2023-03-12T03:42:27;4.25;;;1.85;;
27269;SDS011;14769;56.934;24.176;2023-03-12T03:43:29;4.15;;;1.80;;
27269;SDS011;14769;56.934;24.176;2023-03-12T03:44:31;3.13;;;1.30;;
27269;SDS011;14769;56.934;24.176;2023-03-12T03:45:32;3.17;;;1.35;;
27269;SDS011;14769;56.934;24.176;2023-03-12T03:46:34;3.00;;;1.40;;
27269;SDS011;14769;56.934;24.176;2023-03-12T03:47:36;4.70;;;1.60;;
27269;SDS011;14769;56.934;24.176;2023-03-12T03:48:39;4.03;;;1.70;;
27269;SDS011;14769;56.934;24.176;2023-03-12T03:49:41;4.80;;;1.75;;
27269;SDS011;14769;56.934;24.176;2023-03-12T03:50:43;5.93;;;1.60;;
27269;SDS011;14769;56.934;24.176;2023-03-12T03:51:45;5.53;;;2.00;;
27269;SDS011;14769;56.934;24.176;2023-03-12T03:52:47;2.70;;;2.00;;
27269;SDS011;14769;56.934;24.176;2023-03-12T03:53:49;4.85;;;2.45;;
27269;SDS011;14769;56.934;24.176;2023-03-12T03:54:51;4.85;;;1.80;;
27269;SDS011;14769;56.934;24.176;2023-03-12T03:55:57;4.60;;;1.92;;
27269;SDS011;14769;56.934;24.176;2023-03-12T03:56:59;4.93;;;1.85;;
27269;SDS011;14769;56.934;24.176;2023-03-12T03:58:01;12.02;;;2.15;;
27269;SDS011;14769;56.934;24.176;2023-03-12T03:59:03;6.05;;;1.90;;
27269;SDS011;14769;56.934;24.176;2023-03-12T04:00:06;3.70;;;1.70;;
27269;SDS011;14769;56.934;24.176;2023-03-12T04:01:11;2.97;;;1.98;;
27269;SDS011;14769;56.934;24.176;2023-03-12T04:02:14;4.00;;;2.00;;
27269;SDS011;14769;56.934;24.176;2023-03-12T04:03:16;3.42;;;1.95;;
27269;SDS011;14769;56.934;24.176;2023-03-12T04:04:18;3.45;;;1.90;;
27269;SDS011;14769;56.934;24.176;2023-03-12T04:05:20;4.75;;;2.08;;
27269;SDS011;14769;56.934;24.176;2023-03-12T04:06:22;4.47;;;2.20;;
27269;SDS011;14769;56.934;24.176;2023-03-12T04:09:29;3.20;;;2.00;;
27269;SDS011;14769;56.934;24.176;2023-03-12T04:10:31;5.53;;;1.88;;
27269;SDS011;14769;56.934;24.176;2023-03-12T04:11:33;4.50;;;2.00;;
27269;SDS011;14769;56.934;24.176;2023-03-12T04:13:37;5.85;;;2.15;;
27269;SDS011;14769;56.934;24.176;2023-03-12T04:14:41;7.00;;;2.37;;
27269;SDS011;14769;56.934;24.176;2023-03-12T04:15:47;9.53;;;2.53;;
27269;SDS011;14769;56.934;24.176;2023-03-12T04:16:50;4.53;;;2.10;;
27269;SDS011;14769;56.934;24.176;2023-03-12T04:17:52;5.10;;;1.90;;
27269;SDS011;14769;56.934;24.176;2023-03-12T04:18:54;8.57;;;2.53;;
27269;SDS011;14769;56.934;24.176;2023-03-12T04:19:56;5.55;;;2.70;;
27269;SDS011;14769;56.934;24.176;2023-03-12T04:20:58;4.30;;;1.95;;
27269;SDS011;14769;56.934;24.176;2023-03-12T04:22:00;5.90;;;2.70;;
27269;SDS011;14769;56.934;24.176;2023-03-12T04:23:02;3.85;;;2.20;;
27269;SDS011;14769;56.934;24.176;2023-03-12T04:24:05;6.32;;;2.63;;
27269;SDS011;14769;56.934;24.176;2023-03-12T04:25:08;3.83;;;2.28;;
27269;SDS011;14769;56.934;24.176;2023-03-12T04:26:11;7.75;;;2.78;;
27269;SDS011;14769;56.934;24.176;2023-03-12T04:27:13;4.88;;;2.25;;
27269;SDS011;14769;56.934;24.176;2023-03-12T04:28:15;5.55;;;2.80;;
27269;SDS011;14769;56.934;24.176;2023-03-12T04:29:17;8.27;;;2.67;;
27269;SDS011;14769;56.934;24.176;2023-03-12T04:30:19;5.35;;;2.40;;
27269;SDS011;14769;56.934;24.176;2023-03-12T04:31:22;6.17;;;2.50;;
27269;SDS011;14769;56.934;24.176;2023-03-12T04:32:24;5.50;;;2.35;;
27269;SDS011;14769;56.934;24.176;2023-03-12T04:33:26;7.00;;;3.00;;
27269;SDS011;14769;56.934;24.176;2023-03-12T04:34:29;6.45;;;2.95;;
27269;SDS011;14769;56.934;24.176;2023-03-12T04:35:32;6.10;;;2.60;;
27269;SDS011;14769;56.934;24.176;2023-03-12T04:37:35;5.83;;;2.87;;
27269;SDS011;14769;56.934;24.176;2023-03-12T04:38:37;4.97;;;2.85;;
27269;SDS011;14769;56.934;24.176;2023-03-12T04:39:40;7.35;;;2.40;;
27269;SDS011;14769;56.934;24.176;2023-03-12T04:40:42;4.93;;;2.97;;
27269;SDS011;14769;56.934;24.176;2023-03-12T04:41:44;7.97;;;3.05;;
27269;SDS011;14769;56.934;24.176;2023-03-12T04:42:46;4.20;;;2.30;;
27269;SDS011;14769;56.934;24.176;2023-03-12T04:43:48;4.35;;;2.40;;
27269;SDS011;14769;56.934;24.176;2023-03-12T04:44:50;6.35;;;2.60;;
27269;SDS011;14769;56.934;24.176;2023-03-12T04:45:53;4.68;;;2.42;;
27269;SDS011;14769;56.934;24.176;2023-03-12T04:46:55;4.72;;;2.40;;
27269;SDS011;14769;56.934;24.176;2023-03-12T04:47:57;6.72;;;2.50;;
27269;SDS011;14769;56.934;24.176;2023-03-12T04:48:59;3.85;;;2.25;;
27269;SDS011;14769;56.934;24.176;2023-03-12T04:50:03;5.28;;;2.58;;
27269;SDS011;14769;56.934;24.176;2023-03-12T04:51:05;6.35;;;2.33;;
27269;SDS011;14769;56.934;24.176;2023-03-12T04:52:07;7.10;;;3.03;;
27269;SDS011;14769;56.934;24.176;2023-03-12T04:53:09;7.57;;;3.25;;
27269;SDS011;14769;56.934;24.176;2023-03-12T04:54:11;6.88;;;2.80;;
27269;SDS011;14769;56.934;24.176;2023-03-12T04:55:13;7.57;;;3.28;;
27269;SDS011;14769;56.934;24.176;2023-03-12T04:56:15;6.25;;;2.78;;
27269;SDS011;14769;56.934;24.176;2023-03-12T04:57:18;5.30;;;2.85;;
27269;SDS011;14769;56.934;24.176;2023-03-12T04:58:20;5.50;;;3.13;;
27269;SDS011;14769;56.934;24.176;2023-03-12T04:59:22;5.10;;;2.30;;
27269;SDS011;14769;56.934;24.176;2023-03-12T05:00:24;10.32;;;2.72;;
27269;SDS011;14769;56.934;24.176;2023-03-12T05:01:28;7.00;;;2.65;;
27269;SDS011;14769;56.934;24.176;2023-03-12T05:02:32;5.75;;;2.35;;
27269;SDS011;14769;56.934;24.176;2023-03-12T05:03:34;6.32;;;2.80;;
27269;SDS011;14769;56.934;24.176;2023-03-12T05:04:36;6.03;;;2.20;;
27269;SDS011;14769;56.934;24.176;2023-03-12T05:05:38;4.68;;;2.63;;
27269;SDS011;14769;56.934;24.176;2023-03-12T05:06:40;5.97;;;2.60;;
27269;SDS011;14769;56.934;24.176;2023-03-12T05:07:42;5.07;;;2.72;;
27269;SDS011;14769;56.934;24.176;2023-03-12T05:08:44;5.80;;;2.80;;
27269;SDS011;14769;56.934;24.176;2023-03-12T05:09:46;5.03;;;2.97;;
27269;SDS011;14769;56.934;24.176;2023-03-12T05:10:48;6.85;;;2.70;;
27269;SDS011;14769;56.934;24.176;2023-03-12T05:11:50;7.65;;;2.47;;
27269;SDS011;14769;56.934;24.176;2023-03-12T05:12:52;8.07;;;3.17;;
27269;SDS011;14769;56.934;24.176;2023-03-12T05:13:54;5.55;;;2.75;;
27269;SDS011;14769;56.934;24.176;2023-03-12T05:14:56;7.78;;;3.05;;
27269;SDS011;14769;56.934;24.176;2023-03-12T05:15:58;7.88;;;3.30;;
27269;SDS011;14769;56.934;24.176;2023-03-12T05:17:00;11.75;;;3.70;;
27269;SDS011;14769;56.934;24.176;2023-03-12T05:18:02;7.03;;;2.95;;
27269;SDS011;14769;56.934;24.176;2023-03-12T05:19:04;7.20;;;3.17;;
27269;SDS011;14769;56.934;24.176;2023-03-12T05:20:06;10.52;;;3.60;;
27269;SDS011;14769;56.934;24.176;2023-03-12T05:21:16;12.02;;;3.83;;
27269;SDS011;14769;56.934;24.176;2023-03-12T05:22:20;11.57;;;3.97;;
27269;SDS011;14769;56.934;24.176;2023-03-12T05:23:22;19.63;;;4.60;;
27269;SDS011;14769;56.934;24.176;2023-03-12T05:24:23;16.85;;;4.00;;
27269;SDS011;14769;56.934;24.176;2023-03-12T05:25:25;9.80;;;4.20;;
27269;SDS011;14769;56.934;24.176;2023-03-12T05:26:29;8.68;;;4.20;;
27269;SDS011;14769;56.934;24.176;2023-03-12T05:27:32;8.68;;;4.28;;
27269;SDS011;14769;56.934;24.176;2023-03-12T05:28:34;9.55;;;4.40;;
27269;SDS011;14769;56.934;24.176;2023-03-12T05:29:36;8.27;;;4.35;;
27269;SDS011;14769;56.934;24.176;2023-03-12T05:30:38;14.10;;;5.05;;
27269;SDS011;14769;56.934;24.176;2023-03-12T05:32:42;8.30;;;4.20;;
27269;SDS011;14769;56.934;24.176;2023-03-12T05:33:45;9.57;;;4.10;;
27269;SDS011;14769;56.934;24.176;2023-03-12T05:34:49;12.10;;;4.07;;
27269;SDS011;14769;56.934;24.176;2023-03-12T05:35:51;13.95;;;4.20;;
27269;SDS011;14769;56.934;24.176;2023-03-12T05:37:55;12.65;;;4.38;;
27269;SDS011;14769;56.934;24.176;2023-03-12T05:38:57;9.75;;;4.18;;
27269;SDS011;14769;56.934;24.176;2023-03-12T05:39:59;6.65;;;4.10;;
27269;SDS011;14769;56.934;24.176;2023-03-12T05:42:04;9.13;;;4.28;;
27269;SDS011;14769;56.934;24.176;2023-03-12T05:44:09;9.52;;;3.97;;
27269;SDS011;14769;56.934;24.176;2023-03-12T05:45:16;11.35;;;4.72;;
27269;SDS011;14769;56.934;24.176;2023-03-12T05:46:19;7.90;;;4.20;;
27269;SDS011;14769;56.934;24.176;2023-03-12T05:47:22;9.18;;;4.32;;
27269;SDS011;14769;56.934;24.176;2023-03-12T05:48:24;11.05;;;3.97;;
27269;SDS011;14769;56.934;24.176;2023-03-12T05:49:26;9.75;;;4.25;;
27269;SDS011;14769;56.934;24.176;2023-03-12T05:50:28;14.98;;;4.43;;
27269;SDS011;14769;56.934;24.176;2023-03-12T05:51:30;8.32;;;3.80;;
27269;SDS011;14769;56.934;24.176;2023-03-12T05:52:32;9.38;;;4.10;;
27269;SDS011;14769;56.934;24.176;2023-03-12T06:20:27;11.23;;;4.55;;
27269;SDS011;14769;56.934;24.176;2023-03-12T06:21:30;8.98;;;3.67;;
27269;SDS011;14769;56.934;24.176;2023-03-12T06:22:33;11.52;;;4.38;;
27269;SDS011;14769;56.934;24.176;2023-03-12T06:23:36;10.57;;;3.45;;
27269;SDS011;14769;56.934;24.176;2023-03-12T06:24:38;7.53;;;3.88;;
27269;SDS011;14769;56.934;24.176;2023-03-12T06:25:43;7.60;;;3.60;;
27269;SDS011;14769;56.934;24.176;2023-03-12T06:26:45;12.25;;;4.38;;
27269;SDS011;14769;56.934;24.176;2023-03-12T06:27:47;9.43;;;4.00;;
27269;SDS011;14769;56.934;24.176;2023-03-12T06:28:49;9.27;;;4.03;;
27269;SDS011;14769;56.934;24.176;2023-03-12T06:29:59;12.82;;;4.00;;
27269;SDS011;14769;56.934;24.176;2023-03-12T06:31:02;9.57;;;3.95;;
27269;SDS011;14769;56.934;24.176;2023-03-12T06:32:05;7.70;;;3.65;;
27269;SDS011;14769;56.934;24.176;2023-03-12T06:33:07;11.32;;;3.40;;
27269;SDS011;14769;56.934;24.176;2023-03-12T06:34:09;9.77;;;3.63;;
27269;SDS011;14769;56.934;24.176;2023-03-12T06:35:12;8.63;;;3.50;;
27269;SDS011;14769;56.934;24.176;2023-03-12T06:36:14;8.73;;;3.42;;
27269;SDS011;14769;56.934;24.176;2023-03-12T06:37:16;10.93;;;3.70;;
27269;SDS011;14769;56.934;24.176;2023-03-12T06:38:18;11.77;;;5.18;;
27269;SDS011;14769;56.934;24.176;2023-03-12T06:39:20;14.75;;;5.20;;
27269;SDS011;14769;56.934;24.176;2023-03-12T06:40:22;11.45;;;4.40;;
27269;SDS011;14769;56.934;24.176;2023-03-12T06:41:24;14.80;;;5.95;;
27269;SDS011;14769;56.934;24.176;2023-03-12T06:42:26;11.00;;;4.30;;
27269;SDS011;14769;56.934;24.176;2023-03-12T06:43:29;10.48;;;4.20;;
27269;SDS011;14769;56.934;24.176;2023-03-12T06:44:33;11.88;;;4.30;;
27269;SDS011;14769;56.934;24.176;2023-03-12T06:45:42;12.80;;;4.28;;
27269;SDS011;14769;56.934;24.176;2023-03-12T06:46:44;11.27;;;4.20;;
27269;SDS011;14769;56.934;24.176;2023-03-12T06:47:48;10.45;;;4.22;;
27269;SDS011;14769;56.934;24.176;2023-03-12T06:48:52;9.57;;;4.28;;
27269;SDS011;14769;56.934;24.176;2023-03-12T06:49:55;12.82;;;4.78;;
27269;SDS011;14769;56.934;24.176;2023-03-12T06:50:57;7.30;;;4.07;;
27269;SDS011;14769;56.934;24.176;2023-03-12T06:51:58;13.65;;;5.15;;
27269;SDS011;14769;56.934;24.176;2023-03-12T06:53:00;9.25;;;4.18;;
27269;SDS011;14769;56.934;24.176;2023-03-12T06:54:02;8.45;;;4.57;;
27269;SDS011;14769;56.934;24.176;2023-03-12T06:55:05;9.57;;;4.30;;
27269;SDS011;14769;56.934;24.176;2023-03-12T06:56:07;9.23;;;4.45;;
27269;SDS011;14769;56.934;24.176;2023-03-12T06:57:10;13.55;;;4.63;;
27269;SDS011;14769;56.934;24.176;2023-03-12T06:58:12;11.80;;;4.72;;
27269;SDS011;14769;56.934;24.176;2023-03-12T06:59:14;9.30;;;4.78;;
27269;SDS011;14769;56.934;24.176;2023-03-12T07:00:16;11.20;;;5.00;;
27269;SDS011;14769;56.934;24.176;2023-03-12T07:01:18;9.38;;;4.50;;
27269;SDS011;14769;56.934;24.176;2023-03-12T07:02:20;10.45;;;4.70;;
27269;SDS011;14769;56.934;24.176;2023-03-12T07:03:22;14.73;;;4.82;;
27269;SDS011;14769;56.934;24.176;2023-03-12T07:04:24;10.77;;;5.30;;